sensor_id;sensor_type;location;lat;lon;timestamp;temperature;humidity
7014;DHT22;3547;50.774;12.918;2022-10-16T00:02:12;15.20;99.90
7014;DHT22;3547;50.774;12.918;2022-10-16T00:20:26;15.20;99.90
7014;DHT22;3547;50.774;12.918;2022-10-16T00:47:43;15.20;99.90
7014;DHT22;3547;50.774;12.918;2022-10-16T01:46:22;15.60;99.90
7014;DHT22;3547;50.774;12.918;2022-10-16T01:48:53;15.60;99.90
7014;DHT22;3547;50.774;12.918;2022-10-16T01:51:21;15.60;99.90
7014;DHT22;3547;50.774;12.918;2022-10-16T01:53:56;15.60;99.90
7014;DHT22;3547;50.774;12.918;2022-10-16T03:36:25;14.90;99.90
7014;DHT22;3547;50.774;12.918;2022-10-16T03:38:59;14.90;99.90
7014;DHT22;3547;50.774;12.918;2022-10-16T05:04:41;15.00;1.00
7014;DHT22;3547;50.774;12.918;2022-10-16T05:31:46;14.70;99.90
7014;DHT22;3547;50.774;12.918;2022-10-16T05:34:18;14.80;99.90
7014;DHT22;3547;50.774;12.918;2022-10-16T05:36:48;14.70;99.90
7014;DHT22;3547;50.774;12.918;2022-10-16T05:39:18;14.80;99.90
7014;DHT22;3547;50.774;12.918;2022-10-16T05:41:45;14.80;99.90
7014;DHT22;3547;50.774;12.918;2022-10-16T05:44:14;14.80;99.90
7014;DHT22;3547;50.774;12.918;2022-10-16T05:46:49;14.90;99.90
7014;DHT22;3547;50.774;12.918;2022-10-16T05:51:51;15.00;99.90
7014;DHT22;3547;50.774;12.918;2022-10-16T05:54:22;15.00;99.90
7014;DHT22;3547;50.774;12.918;2022-10-16T05:59:28;15.10;99.90
7014;DHT22;3547;50.774;12.918;2022-10-16T06:02:05;15.10;99.90
7014;DHT22;3547;50.774;12.918;2022-10-16T06:04:34;15.20;99.90
7014;DHT22;3547;50.774;12.918;2022-10-16T06:07:06;15.20;99.90
7014;DHT22;3547;50.774;12.918;2022-10-16T06:45:23;14.90;1.00
7014;DHT22;3547;50.774;12.918;2022-10-16T06:51:28;15.00;1.00
7014;DHT22;3547;50.774;12.918;2022-10-16T06:54:01;15.10;1.00
7014;DHT22;3547;50.774;12.918;2022-10-16T06:56:34;15.20;1.00
7014;DHT22;3547;50.774;12.918;2022-10-16T06:59:04;15.30;1.00
7014;DHT22;3547;50.774;12.918;2022-10-16T07:01:33;15.30;1.00
7014;DHT22;3547;50.774;12.918;2022-10-16T07:04:08;15.40;1.00
7014;DHT22;3547;50.774;12.918;2022-10-16T07:06:39;15.50;1.00
7014;DHT22;3547;50.774;12.918;2022-10-16T07:12:48;15.60;1.00
7014;DHT22;3547;50.774;12.918;2022-10-16T07:15:34;15.60;1.00
7014;DHT22;3547;50.774;12.918;2022-10-16T07:56:27;16.50;1.00
7014;DHT22;3547;50.774;12.918;2022-10-16T08:08:19;16.80;1.00
7014;DHT22;3547;50.774;12.918;2022-10-16T08:10:59;16.90;1.00
7014;DHT22;3547;50.774;12.918;2022-10-16T08:13:36;16.90;1.00
7014;DHT22;3547;50.774;12.918;2022-10-16T08:22:39;17.20;1.00
7014;DHT22;3547;50.774;12.918;2022-10-16T08:29:01;17.40;1.00
7014;DHT22;3547;50.774;12.918;2022-10-16T08:31:27;17.50;1.00
7014;DHT22;3547;50.774;12.918;2022-10-16T08:33:54;17.60;1.00
7014;DHT22;3547;50.774;12.918;2022-10-16T08:36:23;17.70;1.00
7014;DHT22;3547;50.774;12.918;2022-10-16T08:39:05;17.80;1.00
7014;DHT22;3547;50.774;12.918;2022-10-16T08:53:56;18.20;1.00
7014;DHT22;3547;50.774;12.918;2022-10-16T08:56:25;18.40;1.00
7014;DHT22;3547;50.774;12.918;2022-10-16T08:59:29;18.40;99.90
7014;DHT22;3547;50.774;12.918;2022-10-16T09:02:02;18.40;99.90
7014;DHT22;3547;50.774;12.918;2022-10-16T09:05:20;18.40;99.90
7014;DHT22;3547;50.774;12.918;2022-10-16T09:16:32;18.70;99.90
7014;DHT22;3547;50.774;12.918;2022-10-16T09:19:22;18.80;99.90
7014;DHT22;3547;50.774;12.918;2022-10-16T09:21:54;18.80;99.90
7014;DHT22;3547;50.774;12.918;2022-10-16T09:24:34;18.90;99.90
7014;DHT22;3547;50.774;12.918;2022-10-16T09:27:00;18.90;99.90
7014;DHT22;3547;50.774;12.918;2022-10-16T09:29:29;19.00;99.90
7014;DHT22;3547;50.774;12.918;2022-10-16T09:32:26;19.00;99.90
7014;DHT22;3547;50.774;12.918;2022-10-16T09:38:37;19.00;99.90
7014;DHT22;3547;50.774;12.918;2022-10-16T09:41:16;19.00;99.90
7014;DHT22;3547;50.774;12.918;2022-10-16T09:43:59;18.90;99.90
7014;DHT22;3547;50.774;12.918;2022-10-16T09:46:38;19.00;99.90
7014;DHT22;3547;50.774;12.918;2022-10-16T09:52:18;19.10;99.90
7014;DHT22;3547;50.774;12.918;2022-10-16T10:00:18;19.10;99.90
7014;DHT22;3547;50.774;12.918;2022-10-16T10:03:45;19.00;99.90
7014;DHT22;3547;50.774;12.918;2022-10-16T10:06:34;19.00;99.90
7014;DHT22;3547;50.774;12.918;2022-10-16T10:18:20;19.50;99.90
7014;DHT22;3547;50.774;12.918;2022-10-16T10:21:00;19.50;99.90
7014;DHT22;3547;50.774;12.918;2022-10-16T10:23:28;19.60;99.90
7014;DHT22;3547;50.774;12.918;2022-10-16T10:26:16;19.70;99.90
7014;DHT22;3547;50.774;12.918;2022-10-16T10:28:52;19.80;99.90
7014;DHT22;3547;50.774;12.918;2022-10-16T10:31:45;19.80;99.90
7014;DHT22;3547;50.774;12.918;2022-10-16T10:37:20;19.90;99.90
7014;DHT22;3547;50.774;12.918;2022-10-16T10:42:40;20.20;99.90
7014;DHT22;3547;50.774;12.918;2022-10-16T10:47:53;20.20;99.90
7014;DHT22;3547;50.774;12.918;2022-10-16T10:53:21;20.00;99.90
7014;DHT22;3547;50.774;12.918;2022-10-16T10:58:42;20.10;99.90
7014;DHT22;3547;50.774;12.918;2022-10-16T11:06:55;20.20;99.90
7014;DHT22;3547;50.774;12.918;2022-10-16T11:09:26;20.30;99.90
7014;DHT22;3547;50.774;12.918;2022-10-16T11:17:31;20.60;99.90
7014;DHT22;3547;50.774;12.918;2022-10-16T11:20:27;20.50;99.90
7014;DHT22;3547;50.774;12.918;2022-10-16T11:23:07;20.70;99.90
7014;DHT22;3547;50.774;12.918;2022-10-16T11:25:36;20.80;99.90
7014;DHT22;3547;50.774;12.918;2022-10-16T11:28:14;21.00;99.90
7014;DHT22;3547;50.774;12.918;2022-10-16T11:30:52;21.00;99.90
7014;DHT22;3547;50.774;12.918;2022-10-16T11:38:49;20.80;99.90
7014;DHT22;3547;50.774;12.918;2022-10-16T11:46:51;20.70;99.90
7014;DHT22;3547;50.774;12.918;2022-10-16T11:49:21;20.80;99.90
7014;DHT22;3547;50.774;12.918;2022-10-16T11:57:18;20.90;99.90
7014;DHT22;3547;50.774;12.918;2022-10-16T11:59:57;21.00;99.90
7014;DHT22;3547;50.774;12.918;2022-10-16T12:05:52;20.80;99.90
7014;DHT22;3547;50.774;12.918;2022-10-16T12:08:21;20.70;99.90
7014;DHT22;3547;50.774;12.918;2022-10-16T12:10:48;20.70;99.90
7014;DHT22;3547;50.774;12.918;2022-10-16T12:13:35;20.60;99.90
7014;DHT22;3547;50.774;12.918;2022-10-16T12:18:45;20.50;99.90
7014;DHT22;3547;50.774;12.918;2022-10-16T12:21:13;20.40;99.90
7014;DHT22;3547;50.774;12.918;2022-10-16T12:23:56;20.50;99.90
7014;DHT22;3547;50.774;12.918;2022-10-16T12:26:29;20.40;99.90
7014;DHT22;3547;50.774;12.918;2022-10-16T12:31:47;20.60;99.90
7014;DHT22;3547;50.774;12.918;2022-10-16T12:34:22;20.80;99.90
7014;DHT22;3547;50.774;12.918;2022-10-16T12:36:50;21.00;99.90
7014;DHT22;3547;50.774;12.918;2022-10-16T12:39:27;21.00;99.90
7014;DHT22;3547;50.774;12.918;2022-10-16T12:42:02;21.00;99.90
7014;DHT22;3547;50.774;12.918;2022-10-16T12:44:33;21.20;99.90
7014;DHT22;3547;50.774;12.918;2022-10-16T12:47:00;21.20;99.90
7014;DHT22;3547;50.774;12.918;2022-10-16T12:49:36;21.20;97.80
7014;DHT22;3547;50.774;12.918;2022-10-16T12:52:03;21.10;99.90
7014;DHT22;3547;50.774;12.918;2022-10-16T12:54:38;21.20;99.90
7014;DHT22;3547;50.774;12.918;2022-10-16T12:59:52;21.60;99.90
7014;DHT22;3547;50.774;12.918;2022-10-16T13:05:38;21.40;97.70
7014;DHT22;3547;50.774;12.918;2022-10-16T13:08:39;21.20;91.60
7014;DHT22;3547;50.774;12.918;2022-10-16T13:14:27;21.40;96.80
7014;DHT22;3547;50.774;12.918;2022-10-16T13:17:01;21.40;90.90
7014;DHT22;3547;50.774;12.918;2022-10-16T13:25:01;21.40;99.90
7014;DHT22;3547;50.774;12.918;2022-10-16T13:28:05;21.50;99.90
7014;DHT22;3547;50.774;12.918;2022-10-16T13:30:53;21.30;99.90
7014;DHT22;3547;50.774;12.918;2022-10-16T13:35:54;21.30;99.90
7014;DHT22;3547;50.774;12.918;2022-10-16T13:38:23;21.20;99.90
7014;DHT22;3547;50.774;12.918;2022-10-16T13:43:24;21.20;99.90
7014;DHT22;3547;50.774;12.918;2022-10-16T13:45:57;21.20;99.90
7014;DHT22;3547;50.774;12.918;2022-10-16T13:48:23;21.10;99.90
7014;DHT22;3547;50.774;12.918;2022-10-16T13:51:06;21.00;99.90
7014;DHT22;3547;50.774;12.918;2022-10-16T13:53:36;21.00;99.90
7014;DHT22;3547;50.774;12.918;2022-10-16T13:56:10;20.80;99.90
7014;DHT22;3547;50.774;12.918;2022-10-16T13:58:36;20.80;98.40
7014;DHT22;3547;50.774;12.918;2022-10-16T14:01:22;20.70;99.90
7014;DHT22;3547;50.774;12.918;2022-10-16T14:03:50;20.70;99.00
7014;DHT22;3547;50.774;12.918;2022-10-16T14:06:20;20.70;99.90
7014;DHT22;3547;50.774;12.918;2022-10-16T14:08:59;20.60;99.90
7014;DHT22;3547;50.774;12.918;2022-10-16T14:11:26;20.60;98.20
7014;DHT22;3547;50.774;12.918;2022-10-16T14:13:53;20.70;99.90
7014;DHT22;3547;50.774;12.918;2022-10-16T14:16:25;20.80;99.90
7014;DHT22;3547;50.774;12.918;2022-10-16T14:21:22;20.90;99.90
7014;DHT22;3547;50.774;12.918;2022-10-16T14:23:49;21.10;99.90
7014;DHT22;3547;50.774;12.918;2022-10-16T14:26:17;21.10;99.90
7014;DHT22;3547;50.774;12.918;2022-10-16T14:28:46;21.00;99.90
7014;DHT22;3547;50.774;12.918;2022-10-16T14:31:26;20.80;99.90
7014;DHT22;3547;50.774;12.918;2022-10-16T14:33:53;20.70;94.70
7014;DHT22;3547;50.774;12.918;2022-10-16T14:36:20;20.50;99.90
7014;DHT22;3547;50.774;12.918;2022-10-16T14:39:04;20.50;99.90
7014;DHT22;3547;50.774;12.918;2022-10-16T14:41:33;20.40;99.90
7014;DHT22;3547;50.774;12.918;2022-10-16T14:44:09;20.40;99.90
7014;DHT22;3547;50.774;12.918;2022-10-16T14:46:38;20.20;95.70
7014;DHT22;3547;50.774;12.918;2022-10-16T14:51:38;20.10;99.90
7014;DHT22;3547;50.774;12.918;2022-10-16T14:54:08;20.00;99.90
7014;DHT22;3547;50.774;12.918;2022-10-16T14:56:55;19.80;97.70
7014;DHT22;3547;50.774;12.918;2022-10-16T14:59:38;19.80;99.90
7014;DHT22;3547;50.774;12.918;2022-10-16T15:04:40;19.70;96.50
7014;DHT22;3547;50.774;12.918;2022-10-16T15:07:07;19.80;99.90
7014;DHT22;3547;50.774;12.918;2022-10-16T15:09:34;19.90;99.90
7014;DHT22;3547;50.774;12.918;2022-10-16T15:12:00;19.90;99.90
7014;DHT22;3547;50.774;12.918;2022-10-16T15:14:26;19.90;99.90
7014;DHT22;3547;50.774;12.918;2022-10-16T15:16:52;19.90;99.90
7014;DHT22;3547;50.774;12.918;2022-10-16T15:19:18;19.80;99.90
7014;DHT22;3547;50.774;12.918;2022-10-16T15:21:44;19.90;99.90
7014;DHT22;3547;50.774;12.918;2022-10-16T15:24:12;19.70;99.90
7014;DHT22;3547;50.774;12.918;2022-10-16T15:26:39;19.70;99.90
7014;DHT22;3547;50.774;12.918;2022-10-16T15:29:05;19.50;99.90
7014;DHT22;3547;50.774;12.918;2022-10-16T15:31:32;19.50;99.90
7014;DHT22;3547;50.774;12.918;2022-10-16T15:33:58;19.40;99.90
7014;DHT22;3547;50.774;12.918;2022-10-16T15:36:35;19.40;99.90
7014;DHT22;3547;50.774;12.918;2022-10-16T15:39:04;19.40;99.90
7014;DHT22;3547;50.774;12.918;2022-10-16T15:41:30;19.30;99.90
7014;DHT22;3547;50.774;12.918;2022-10-16T15:43:56;19.20;99.90
7014;DHT22;3547;50.774;12.918;2022-10-16T15:46:24;19.10;99.90
7014;DHT22;3547;50.774;12.918;2022-10-16T15:48:51;19.20;99.90
7014;DHT22;3547;50.774;12.918;2022-10-16T15:51:21;19.10;99.90
7014;DHT22;3547;50.774;12.918;2022-10-16T15:53:47;19.00;99.90
7014;DHT22;3547;50.774;12.918;2022-10-16T15:56:14;18.80;99.90
7014;DHT22;3547;50.774;12.918;2022-10-16T15:58:41;18.70;99.90
7014;DHT22;3547;50.774;12.918;2022-10-16T16:01:08;18.70;99.90
7014;DHT22;3547;50.774;12.918;2022-10-16T16:03:37;18.60;99.90
7014;DHT22;3547;50.774;12.918;2022-10-16T16:06:09;18.50;99.90
7014;DHT22;3547;50.774;12.918;2022-10-16T16:08:36;18.40;99.90
7014;DHT22;3547;50.774;12.918;2022-10-16T16:11:09;18.30;99.90
7014;DHT22;3547;50.774;12.918;2022-10-16T16:13:35;18.20;99.90
7014;DHT22;3547;50.774;12.918;2022-10-16T16:16:11;18.10;99.90
7014;DHT22;3547;50.774;12.918;2022-10-16T16:18:38;18.00;99.90
7014;DHT22;3547;50.774;12.918;2022-10-16T16:21:04;17.80;99.90
7014;DHT22;3547;50.774;12.918;2022-10-16T16:23:31;17.70;99.90
7014;DHT22;3547;50.774;12.918;2022-10-16T16:26:29;17.70;99.90
7014;DHT22;3547;50.774;12.918;2022-10-16T16:28:59;17.60;99.90
7014;DHT22;3547;50.774;12.918;2022-10-16T16:31:27;17.30;99.90
7014;DHT22;3547;50.774;12.918;2022-10-16T16:33:54;17.20;99.90
7014;DHT22;3547;50.774;12.918;2022-10-16T16:36:22;17.10;99.90
7014;DHT22;3547;50.774;12.918;2022-10-16T16:38:48;17.00;99.90
7014;DHT22;3547;50.774;12.918;2022-10-16T16:41:19;17.00;99.90
7014;DHT22;3547;50.774;12.918;2022-10-16T16:43:46;17.00;99.90
7014;DHT22;3547;50.774;12.918;2022-10-16T16:46:14;16.90;99.90
7014;DHT22;3547;50.774;12.918;2022-10-16T16:48:41;16.70;99.90
7014;DHT22;3547;50.774;12.918;2022-10-16T16:51:11;16.70;99.90
7014;DHT22;3547;50.774;12.918;2022-10-16T16:53:42;16.60;99.90
7014;DHT22;3547;50.774;12.918;2022-10-16T16:56:08;16.60;99.90
7014;DHT22;3547;50.774;12.918;2022-10-16T16:58:34;16.60;99.90
7014;DHT22;3547;50.774;12.918;2022-10-16T17:01:01;16.50;99.90
7014;DHT22;3547;50.774;12.918;2022-10-16T17:03:29;16.50;99.90
7014;DHT22;3547;50.774;12.918;2022-10-16T17:06:02;16.40;99.90
7014;DHT22;3547;50.774;12.918;2022-10-16T17:08:29;16.40;99.90
7014;DHT22;3547;50.774;12.918;2022-10-16T17:10:56;16.40;99.90
7014;DHT22;3547;50.774;12.918;2022-10-16T17:13:23;16.40;99.90
7014;DHT22;3547;50.774;12.918;2022-10-16T17:15:50;16.20;99.90
7014;DHT22;3547;50.774;12.918;2022-10-16T17:18:17;16.20;99.90
7014;DHT22;3547;50.774;12.918;2022-10-16T17:20:43;16.20;99.90
7014;DHT22;3547;50.774;12.918;2022-10-16T17:23:10;16.10;99.90
7014;DHT22;3547;50.774;12.918;2022-10-16T17:25:40;16.10;99.90
7014;DHT22;3547;50.774;12.918;2022-10-16T17:28:08;16.00;99.90
7014;DHT22;3547;50.774;12.918;2022-10-16T17:30:37;15.90;99.90
7014;DHT22;3547;50.774;12.918;2022-10-16T17:33:05;15.90;99.90
7014;DHT22;3547;50.774;12.918;2022-10-16T17:35:39;15.80;99.90
7014;DHT22;3547;50.774;12.918;2022-10-16T17:38:06;15.80;99.90
7014;DHT22;3547;50.774;12.918;2022-10-16T17:40:33;15.70;99.90
7014;DHT22;3547;50.774;12.918;2022-10-16T17:43:00;15.70;99.90
7014;DHT22;3547;50.774;12.918;2022-10-16T17:45:26;15.70;99.90
7014;DHT22;3547;50.774;12.918;2022-10-16T17:47:52;15.60;99.90
7014;DHT22;3547;50.774;12.918;2022-10-16T17:50:18;15.70;99.90
7014;DHT22;3547;50.774;12.918;2022-10-16T17:52:45;15.60;99.90
7014;DHT22;3547;50.774;12.918;2022-10-16T17:55:11;15.60;99.90
7014;DHT22;3547;50.774;12.918;2022-10-16T17:57:37;15.60;99.90
7014;DHT22;3547;50.774;12.918;2022-10-16T18:00:04;15.60;99.90
7014;DHT22;3547;50.774;12.918;2022-10-16T18:02:31;15.70;99.90
7014;DHT22;3547;50.774;12.918;2022-10-16T18:04:57;15.60;99.90
7014;DHT22;3547;50.774;12.918;2022-10-16T18:07:24;15.60;99.90
7014;DHT22;3547;50.774;12.918;2022-10-16T18:09:51;15.60;99.90
7014;DHT22;3547;50.774;12.918;2022-10-16T18:12:17;15.60;99.90
7014;DHT22;3547;50.774;12.918;2022-10-16T18:14:44;15.60;99.90
7014;DHT22;3547;50.774;12.918;2022-10-16T18:17:10;15.60;99.90
7014;DHT22;3547;50.774;12.918;2022-10-16T18:19:36;15.60;99.90
7014;DHT22;3547;50.774;12.918;2022-10-16T18:22:02;15.60;99.90
7014;DHT22;3547;50.774;12.918;2022-10-16T18:24:28;15.70;99.90
7014;DHT22;3547;50.774;12.918;2022-10-16T18:26:55;15.70;99.90
7014;DHT22;3547;50.774;12.918;2022-10-16T18:29:22;15.70;99.90
7014;DHT22;3547;50.774;12.918;2022-10-16T18:31:49;15.80;99.90
7014;DHT22;3547;50.774;12.918;2022-10-16T18:34:15;15.70;99.90
7014;DHT22;3547;50.774;12.918;2022-10-16T18:36:41;15.80;99.90
7014;DHT22;3547;50.774;12.918;2022-10-16T18:39:09;15.80;99.90
7014;DHT22;3547;50.774;12.918;2022-10-16T18:41:40;15.90;99.90
7014;DHT22;3547;50.774;12.918;2022-10-16T18:44:07;15.90;99.90
7014;DHT22;3547;50.774;12.918;2022-10-16T18:46:36;15.90;99.90
7014;DHT22;3547;50.774;12.918;2022-10-16T18:49:02;15.90;99.90
7014;DHT22;3547;50.774;12.918;2022-10-16T18:51:32;16.00;99.90
7014;DHT22;3547;50.774;12.918;2022-10-16T18:54:06;16.00;99.90
7014;DHT22;3547;50.774;12.918;2022-10-16T18:56:33;16.00;99.90
7014;DHT22;3547;50.774;12.918;2022-10-16T18:59:00;16.00;99.90
7014;DHT22;3547;50.774;12.918;2022-10-16T19:01:29;16.00;99.90
7014;DHT22;3547;50.774;12.918;2022-10-16T19:03:58;16.00;99.90
7014;DHT22;3547;50.774;12.918;2022-10-16T19:06:25;16.00;99.90
7014;DHT22;3547;50.774;12.918;2022-10-16T19:08:53;16.00;99.90
7014;DHT22;3547;50.774;12.918;2022-10-16T19:11:21;16.10;99.90
7014;DHT22;3547;50.774;12.918;2022-10-16T19:13:47;16.10;99.90
7014;DHT22;3547;50.774;12.918;2022-10-16T19:16:16;16.10;99.90
7014;DHT22;3547;50.774;12.918;2022-10-16T19:18:43;16.10;99.90
7014;DHT22;3547;50.774;12.918;2022-10-16T19:21:11;16.10;99.90
7014;DHT22;3547;50.774;12.918;2022-10-16T19:23:38;16.10;99.90
7014;DHT22;3547;50.774;12.918;2022-10-16T19:26:06;16.10;99.90
7014;DHT22;3547;50.774;12.918;2022-10-16T19:28:33;16.10;99.90
7014;DHT22;3547;50.774;12.918;2022-10-16T19:31:14;16.20;99.90
7014;DHT22;3547;50.774;12.918;2022-10-16T19:33:41;16.20;99.90
7014;DHT22;3547;50.774;12.918;2022-10-16T19:38:37;16.20;99.90
7014;DHT22;3547;50.774;12.918;2022-10-16T19:41:08;16.10;99.90
7014;DHT22;3547;50.774;12.918;2022-10-16T19:43:35;16.20;99.90
7014;DHT22;3547;50.774;12.918;2022-10-16T19:46:12;16.10;99.90
7014;DHT22;3547;50.774;12.918;2022-10-16T19:48:38;16.20;99.90
7014;DHT22;3547;50.774;12.918;2022-10-16T19:51:11;16.10;99.90
7014;DHT22;3547;50.774;12.918;2022-10-16T19:53:38;16.10;99.90
7014;DHT22;3547;50.774;12.918;2022-10-16T19:56:21;16.00;99.90
7014;DHT22;3547;50.774;12.918;2022-10-16T19:58:48;16.00;99.90
7014;DHT22;3547;50.774;12.918;2022-10-16T20:01:16;16.00;99.90
7014;DHT22;3547;50.774;12.918;2022-10-16T20:03:43;15.90;99.90
7014;DHT22;3547;50.774;12.918;2022-10-16T20:06:10;15.80;99.90
7014;DHT22;3547;50.774;12.918;2022-10-16T20:08:38;15.80;99.90
7014;DHT22;3547;50.774;12.918;2022-10-16T20:11:08;15.80;99.90
7014;DHT22;3547;50.774;12.918;2022-10-16T20:13:34;15.80;99.90
7014;DHT22;3547;50.774;12.918;2022-10-16T20:16:03;15.70;99.90
7014;DHT22;3547;50.774;12.918;2022-10-16T20:18:29;15.60;99.90
7014;DHT22;3547;50.774;12.918;2022-10-16T20:20:55;15.50;99.90
7014;DHT22;3547;50.774;12.918;2022-10-16T20:23:21;15.50;99.90
7014;DHT22;3547;50.774;12.918;2022-10-16T20:25:49;15.30;99.90
7014;DHT22;3547;50.774;12.918;2022-10-16T20:28:17;15.20;99.90
7014;DHT22;3547;50.774;12.918;2022-10-16T20:30:45;15.20;99.90
7014;DHT22;3547;50.774;12.918;2022-10-16T20:33:12;15.20;99.90
7014;DHT22;3547;50.774;12.918;2022-10-16T20:35:45;15.10;99.90
7014;DHT22;3547;50.774;12.918;2022-10-16T20:38:12;15.00;99.90
7014;DHT22;3547;50.774;12.918;2022-10-16T20:40:42;15.10;99.90
7014;DHT22;3547;50.774;12.918;2022-10-16T20:43:14;15.10;99.90
7014;DHT22;3547;50.774;12.918;2022-10-16T20:45:40;15.00;99.90
7014;DHT22;3547;50.774;12.918;2022-10-16T20:48:07;15.00;99.90
7014;DHT22;3547;50.774;12.918;2022-10-16T20:50:33;15.00;99.90
7014;DHT22;3547;50.774;12.918;2022-10-16T20:52:59;15.00;99.90
7014;DHT22;3547;50.774;12.918;2022-10-16T20:55:26;15.00;99.90
7014;DHT22;3547;50.774;12.918;2022-10-16T20:57:53;15.00;99.90
7014;DHT22;3547;50.774;12.918;2022-10-16T21:00:19;15.00;99.90
7014;DHT22;3547;50.774;12.918;2022-10-16T21:02:49;15.00;99.90
7014;DHT22;3547;50.774;12.918;2022-10-16T21:05:15;15.00;99.90
7014;DHT22;3547;50.774;12.918;2022-10-16T21:07:42;15.00;99.90
7014;DHT22;3547;50.774;12.918;2022-10-16T21:10:08;14.80;99.90
7014;DHT22;3547;50.774;12.918;2022-10-16T21:12:34;14.90;99.90
7014;DHT22;3547;50.774;12.918;2022-10-16T21:15:01;14.90;99.90
7014;DHT22;3547;50.774;12.918;2022-10-16T21:17:27;14.90;99.90
7014;DHT22;3547;50.774;12.918;2022-10-16T21:19:53;14.90;99.90
7014;DHT22;3547;50.774;12.918;2022-10-16T21:22:19;14.90;99.90
7014;DHT22;3547;50.774;12.918;2022-10-16T21:24:45;14.90;99.90
7014;DHT22;3547;50.774;12.918;2022-10-16T21:27:11;15.00;99.90
7014;DHT22;3547;50.774;12.918;2022-10-16T21:29:37;15.00;99.90
7014;DHT22;3547;50.774;12.918;2022-10-16T21:32:04;14.90;99.90
7014;DHT22;3547;50.774;12.918;2022-10-16T21:34:30;14.90;99.90
7014;DHT22;3547;50.774;12.918;2022-10-16T21:36:56;14.90;99.90
7014;DHT22;3547;50.774;12.918;2022-10-16T21:39:22;15.00;99.90
7014;DHT22;3547;50.774;12.918;2022-10-16T21:41:49;15.00;1.00
7014;DHT22;3547;50.774;12.918;2022-10-16T21:44:16;15.00;1.00
7014;DHT22;3547;50.774;12.918;2022-10-16T21:46:45;15.00;1.00
7014;DHT22;3547;50.774;12.918;2022-10-16T21:49:14;15.00;1.00
7014;DHT22;3547;50.774;12.918;2022-10-16T21:51:46;15.00;1.00
7014;DHT22;3547;50.774;12.918;2022-10-16T21:54:20;15.00;1.00
7014;DHT22;3547;50.774;12.918;2022-10-16T21:56:46;15.00;1.00
7014;DHT22;3547;50.774;12.918;2022-10-16T21:59:13;14.90;1.00
7014;DHT22;3547;50.774;12.918;2022-10-16T22:01:40;14.90;1.00
7014;DHT22;3547;50.774;12.918;2022-10-16T22:04:07;14.90;1.00
7014;DHT22;3547;50.774;12.918;2022-10-16T22:06:34;14.80;1.00
7014;DHT22;3547;50.774;12.918;2022-10-16T22:09:00;14.80;1.00
7014;DHT22;3547;50.774;12.918;2022-10-16T22:11:31;14.80;1.00
7014;DHT22;3547;50.774;12.918;2022-10-16T22:14:03;14.80;99.90
7014;DHT22;3547;50.774;12.918;2022-10-16T22:16:30;14.80;1.00
7014;DHT22;3547;50.774;12.918;2022-10-16T22:18:57;14.70;1.00
7014;DHT22;3547;50.774;12.918;2022-10-16T22:21:25;14.70;1.00
7014;DHT22;3547;50.774;12.918;2022-10-16T22:23:52;14.60;1.00
7014;DHT22;3547;50.774;12.918;2022-10-16T22:26:18;14.60;1.00
7014;DHT22;3547;50.774;12.918;2022-10-16T22:28:44;14.60;1.00
7014;DHT22;3547;50.774;12.918;2022-10-16T22:31:12;14.60;1.00
7014;DHT22;3547;50.774;12.918;2022-10-16T22:33:39;14.50;1.00
7014;DHT22;3547;50.774;12.918;2022-10-16T22:36:07;14.50;1.00
7014;DHT22;3547;50.774;12.918;2022-10-16T22:38:34;14.50;1.00
7014;DHT22;3547;50.774;12.918;2022-10-16T22:41:06;14.50;1.00
7014;DHT22;3547;50.774;12.918;2022-10-16T22:43:37;14.40;1.00
7014;DHT22;3547;50.774;12.918;2022-10-16T22:46:06;14.40;1.00
7014;DHT22;3547;50.774;12.918;2022-10-16T22:48:34;14.40;1.00
7014;DHT22;3547;50.774;12.918;2022-10-16T22:51:00;14.40;1.00
7014;DHT22;3547;50.774;12.918;2022-10-16T22:53:27;14.30;1.00
7014;DHT22;3547;50.774;12.918;2022-10-16T22:55:53;14.30;1.00
7014;DHT22;3547;50.774;12.918;2022-10-16T22:58:20;14.30;1.00
7014;DHT22;3547;50.774;12.918;2022-10-16T23:00:46;14.20;1.00
7014;DHT22;3547;50.774;12.918;2022-10-16T23:03:13;14.10;1.00
7014;DHT22;3547;50.774;12.918;2022-10-16T23:05:40;14.10;1.00
7014;DHT22;3547;50.774;12.918;2022-10-16T23:08:07;14.10;1.00
7014;DHT22;3547;50.774;12.918;2022-10-16T23:10:37;14.00;1.00
7014;DHT22;3547;50.774;12.918;2022-10-16T23:13:04;13.90;1.00
7014;DHT22;3547;50.774;12.918;2022-10-16T23:15:30;13.90;2.00
7014;DHT22;3547;50.774;12.918;2022-10-16T23:17:56;14.00;1.00
7014;DHT22;3547;50.774;12.918;2022-10-16T23:20:23;13.90;1.00
7014;DHT22;3547;50.774;12.918;2022-10-16T23:22:49;13.90;1.00
7014;DHT22;3547;50.774;12.918;2022-10-16T23:25:15;13.90;1.00
7014;DHT22;3547;50.774;12.918;2022-10-16T23:27:42;14.00;1.00
7014;DHT22;3547;50.774;12.918;2022-10-16T23:30:08;13.90;1.00
7014;DHT22;3547;50.774;12.918;2022-10-16T23:32:34;13.80;19.00
7014;DHT22;3547;50.774;12.918;2022-10-16T23:35:00;13.90;1.00
7014;DHT22;3547;50.774;12.918;2022-10-16T23:37:27;13.80;1.00
7014;DHT22;3547;50.774;12.918;2022-10-16T23:39:53;13.70;1.00
7014;DHT22;3547;50.774;12.918;2022-10-16T23:42:19;13.70;1.00
7014;DHT22;3547;50.774;12.918;2022-10-16T23:44:45;13.80;1.00
7014;DHT22;3547;50.774;12.918;2022-10-16T23:47:11;13.80;1.00
7014;DHT22;3547;50.774;12.918;2022-10-16T23:49:37;13.80;1.00
7014;DHT22;3547;50.774;12.918;2022-10-16T23:52:04;13.80;9.60
7014;DHT22;3547;50.774;12.918;2022-10-16T23:54:30;13.80;1.00
7014;DHT22;3547;50.774;12.918;2022-10-16T23:56:56;13.80;1.00
7014;DHT22;3547;50.774;12.918;2022-10-16T23:59:22;13.70;1.00
